sensor_id;sensor_type;location;lat;lon;timestamp;temperature;humidity
41262;DHT22;29629;52.532;13.352;2022-08-21T00:00:06;20.60;99.90
41262;DHT22;29629;52.532;13.352;2022-08-21T00:02:34;20.60;99.90
41262;DHT22;29629;52.532;13.352;2022-08-21T00:05:01;20.50;99.90
41262;DHT22;29629;52.532;13.352;2022-08-21T00:07:29;20.50;99.90
41262;DHT22;29629;52.532;13.352;2022-08-21T00:09:57;20.60;99.90
41262;DHT22;29629;52.532;13.352;2022-08-21T00:12:24;20.60;99.90
41262;DHT22;29629;52.532;13.352;2022-08-21T00:14:50;20.60;99.90
41262;DHT22;29629;52.532;13.352;2022-08-21T00:17:17;20.50;99.90
41262;DHT22;29629;52.532;13.352;2022-08-21T00:19:44;20.50;99.90
41262;DHT22;29629;52.532;13.352;2022-08-21T00:22:11;20.50;99.90
41262;DHT22;29629;52.532;13.352;2022-08-21T00:24:39;20.50;99.90
41262;DHT22;29629;52.532;13.352;2022-08-21T00:27:06;20.50;99.90
41262;DHT22;29629;52.532;13.352;2022-08-21T00:29:33;20.40;99.90
41262;DHT22;29629;52.532;13.352;2022-08-21T00:31:59;20.40;99.90
41262;DHT22;29629;52.532;13.352;2022-08-21T00:34:26;20.40;99.90
41262;DHT22;29629;52.532;13.352;2022-08-21T00:36:53;20.40;99.90
41262;DHT22;29629;52.532;13.352;2022-08-21T00:39:20;20.40;99.90
41262;DHT22;29629;52.532;13.352;2022-08-21T00:41:48;20.30;99.90
41262;DHT22;29629;52.532;13.352;2022-08-21T00:44:15;20.30;99.90
41262;DHT22;29629;52.532;13.352;2022-08-21T00:46:43;20.30;99.90
41262;DHT22;29629;52.532;13.352;2022-08-21T00:49:11;20.30;99.90
41262;DHT22;29629;52.532;13.352;2022-08-21T00:51:42;20.30;99.90
41262;DHT22;29629;52.532;13.352;2022-08-21T00:54:11;20.20;99.90
41262;DHT22;29629;52.532;13.352;2022-08-21T00:56:39;20.20;99.90
41262;DHT22;29629;52.532;13.352;2022-08-21T00:59:07;20.20;99.90
41262;DHT22;29629;52.532;13.352;2022-08-21T01:01:34;20.20;99.90
41262;DHT22;29629;52.532;13.352;2022-08-21T01:04:02;20.20;99.90
41262;DHT22;29629;52.532;13.352;2022-08-21T01:06:29;20.10;99.90
41262;DHT22;29629;52.532;13.352;2022-08-21T01:08:55;20.10;99.90
41262;DHT22;29629;52.532;13.352;2022-08-21T01:11:22;20.10;99.90
41262;DHT22;29629;52.532;13.352;2022-08-21T01:13:49;20.10;99.90
41262;DHT22;29629;52.532;13.352;2022-08-21T01:16:20;20.10;99.90
41262;DHT22;29629;52.532;13.352;2022-08-21T01:18:48;20.10;99.90
41262;DHT22;29629;52.532;13.352;2022-08-21T01:21:20;20.10;99.90
41262;DHT22;29629;52.532;13.352;2022-08-21T01:23:49;20.00;99.90
41262;DHT22;29629;52.532;13.352;2022-08-21T01:26:18;20.10;99.90
41262;DHT22;29629;52.532;13.352;2022-08-21T01:28:59;20.00;99.90
41262;DHT22;29629;52.532;13.352;2022-08-21T01:31:27;20.00;99.90
41262;DHT22;29629;52.532;13.352;2022-08-21T01:33:55;20.00;99.90
41262;DHT22;29629;52.532;13.352;2022-08-21T01:36:24;19.90;99.90
41262;DHT22;29629;52.532;13.352;2022-08-21T01:38:51;19.90;99.90
41262;DHT22;29629;52.532;13.352;2022-08-21T01:41:18;19.90;99.90
41262;DHT22;29629;52.532;13.352;2022-08-21T01:43:44;19.90;99.90
41262;DHT22;29629;52.532;13.352;2022-08-21T01:46:12;19.90;99.90
41262;DHT22;29629;52.532;13.352;2022-08-21T01:48:39;19.90;99.90
41262;DHT22;29629;52.532;13.352;2022-08-21T01:51:06;19.80;99.90
41262;DHT22;29629;52.532;13.352;2022-08-21T01:53:36;19.90;99.90
41262;DHT22;29629;52.532;13.352;2022-08-21T01:56:05;19.90;99.90
41262;DHT22;29629;52.532;13.352;2022-08-21T01:58:32;19.90;99.90
41262;DHT22;29629;52.532;13.352;2022-08-21T02:00:59;19.90;99.90
41262;DHT22;29629;52.532;13.352;2022-08-21T02:03:27;19.90;99.90
41262;DHT22;29629;52.532;13.352;2022-08-21T02:05:54;19.80;99.90
41262;DHT22;29629;52.532;13.352;2022-08-21T02:08:21;19.80;99.90
41262;DHT22;29629;52.532;13.352;2022-08-21T02:10:50;19.70;99.90
41262;DHT22;29629;52.532;13.352;2022-08-21T02:13:18;19.70;99.90
41262;DHT22;29629;52.532;13.352;2022-08-21T02:15:45;19.60;99.90
41262;DHT22;29629;52.532;13.352;2022-08-21T02:18:11;19.60;99.90
41262;DHT22;29629;52.532;13.352;2022-08-21T02:20:41;19.50;99.90
41262;DHT22;29629;52.532;13.352;2022-08-21T02:23:10;19.60;99.90
41262;DHT22;29629;52.532;13.352;2022-08-21T02:25:37;19.50;99.90
41262;DHT22;29629;52.532;13.352;2022-08-21T02:28:08;19.50;99.90
41262;DHT22;29629;52.532;13.352;2022-08-21T02:30:38;19.50;99.90
41262;DHT22;29629;52.532;13.352;2022-08-21T02:33:06;19.50;99.90
41262;DHT22;29629;52.532;13.352;2022-08-21T02:35:33;19.50;99.90
41262;DHT22;29629;52.532;13.352;2022-08-21T02:38:03;19.40;99.90
41262;DHT22;29629;52.532;13.352;2022-08-21T02:40:34;19.40;99.90
41262;DHT22;29629;52.532;13.352;2022-08-21T02:43:02;19.40;99.90
41262;DHT22;29629;52.532;13.352;2022-08-21T02:45:31;19.50;99.90
41262;DHT22;29629;52.532;13.352;2022-08-21T02:48:00;19.50;99.90
41262;DHT22;29629;52.532;13.352;2022-08-21T02:50:30;19.40;99.90
41262;DHT22;29629;52.532;13.352;2022-08-21T02:52:57;19.40;99.90
41262;DHT22;29629;52.532;13.352;2022-08-21T02:55:27;19.40;99.90
41262;DHT22;29629;52.532;13.352;2022-08-21T02:57:55;19.30;99.90
41262;DHT22;29629;52.532;13.352;2022-08-21T03:00:23;19.40;99.90
41262;DHT22;29629;52.532;13.352;2022-08-21T03:02:53;19.30;99.90
41262;DHT22;29629;52.532;13.352;2022-08-21T03:05:22;19.20;99.90
41262;DHT22;29629;52.532;13.352;2022-08-21T03:07:49;19.20;99.90
41262;DHT22;29629;52.532;13.352;2022-08-21T03:10:18;19.20;99.90
41262;DHT22;29629;52.532;13.352;2022-08-21T03:12:46;19.20;99.90
41262;DHT22;29629;52.532;13.352;2022-08-21T03:15:16;19.20;99.90
41262;DHT22;29629;52.532;13.352;2022-08-21T03:17:44;19.10;99.90
41262;DHT22;29629;52.532;13.352;2022-08-21T03:20:13;19.00;99.90
41262;DHT22;29629;52.532;13.352;2022-08-21T03:22:41;19.10;99.90
41262;DHT22;29629;52.532;13.352;2022-08-21T03:25:09;19.10;99.90
41262;DHT22;29629;52.532;13.352;2022-08-21T03:27:36;19.10;99.90
41262;DHT22;29629;52.532;13.352;2022-08-21T03:30:06;19.00;99.90
41262;DHT22;29629;52.532;13.352;2022-08-21T03:32:33;19.00;99.90
41262;DHT22;29629;52.532;13.352;2022-08-21T03:35:00;19.00;99.90
41262;DHT22;29629;52.532;13.352;2022-08-21T03:37:29;19.00;99.90
41262;DHT22;29629;52.532;13.352;2022-08-21T03:39:56;19.00;99.90
41262;DHT22;29629;52.532;13.352;2022-08-21T03:42:22;18.90;99.90
41262;DHT22;29629;52.532;13.352;2022-08-21T03:44:49;18.90;99.90
41262;DHT22;29629;52.532;13.352;2022-08-21T03:47:16;18.90;99.90
41262;DHT22;29629;52.532;13.352;2022-08-21T03:49:43;18.90;99.90
41262;DHT22;29629;52.532;13.352;2022-08-21T03:52:10;18.90;99.90
41262;DHT22;29629;52.532;13.352;2022-08-21T03:54:38;18.80;99.90
41262;DHT22;29629;52.532;13.352;2022-08-21T03:57:05;18.80;99.90
41262;DHT22;29629;52.532;13.352;2022-08-21T03:59:32;18.90;99.90
41262;DHT22;29629;52.532;13.352;2022-08-21T04:02:02;18.80;99.90
41262;DHT22;29629;52.532;13.352;2022-08-21T04:04:30;18.80;99.90
41262;DHT22;29629;52.532;13.352;2022-08-21T04:06:57;18.80;99.90
41262;DHT22;29629;52.532;13.352;2022-08-21T04:09:24;18.80;99.90
41262;DHT22;29629;52.532;13.352;2022-08-21T04:11:53;18.70;99.90
41262;DHT22;29629;52.532;13.352;2022-08-21T04:14:20;18.70;99.90
41262;DHT22;29629;52.532;13.352;2022-08-21T04:16:47;18.70;99.90
41262;DHT22;29629;52.532;13.352;2022-08-21T04:19:14;18.70;99.90
41262;DHT22;29629;52.532;13.352;2022-08-21T04:21:41;18.70;99.90
41262;DHT22;29629;52.532;13.352;2022-08-21T04:24:09;18.70;99.90
41262;DHT22;29629;52.532;13.352;2022-08-21T04:26:37;18.70;99.90
41262;DHT22;29629;52.532;13.352;2022-08-21T04:29:06;18.70;99.90
41262;DHT22;29629;52.532;13.352;2022-08-21T04:31:33;18.70;99.90
41262;DHT22;29629;52.532;13.352;2022-08-21T04:34:02;18.70;99.90
41262;DHT22;29629;52.532;13.352;2022-08-21T04:36:30;18.70;99.90
41262;DHT22;29629;52.532;13.352;2022-08-21T04:38:57;18.70;99.90
41262;DHT22;29629;52.532;13.352;2022-08-21T04:41:24;18.70;99.90
41262;DHT22;29629;52.532;13.352;2022-08-21T04:43:51;18.70;99.90
41262;DHT22;29629;52.532;13.352;2022-08-21T04:46:19;18.60;99.90
41262;DHT22;29629;52.532;13.352;2022-08-21T04:48:46;18.60;99.90
41262;DHT22;29629;52.532;13.352;2022-08-21T04:51:15;18.70;99.90
41262;DHT22;29629;52.532;13.352;2022-08-21T04:53:47;18.80;99.90
41262;DHT22;29629;52.532;13.352;2022-08-21T04:56:19;18.70;99.90
41262;DHT22;29629;52.532;13.352;2022-08-21T04:58:47;18.70;99.90
41262;DHT22;29629;52.532;13.352;2022-08-21T05:01:17;18.70;99.90
41262;DHT22;29629;52.532;13.352;2022-08-21T05:03:48;18.70;99.90
41262;DHT22;29629;52.532;13.352;2022-08-21T05:06:16;18.70;99.90
41262;DHT22;29629;52.532;13.352;2022-08-21T05:08:45;18.60;99.90
41262;DHT22;29629;52.532;13.352;2022-08-21T05:11:13;18.60;99.90
41262;DHT22;29629;52.532;13.352;2022-08-21T05:13:40;18.60;99.90
41262;DHT22;29629;52.532;13.352;2022-08-21T05:16:07;18.60;99.90
41262;DHT22;29629;52.532;13.352;2022-08-21T05:18:34;18.60;99.90
41262;DHT22;29629;52.532;13.352;2022-08-21T05:21:03;18.70;99.90
41262;DHT22;29629;52.532;13.352;2022-08-21T05:23:30;18.70;99.90
41262;DHT22;29629;52.532;13.352;2022-08-21T05:25:57;18.70;99.90
41262;DHT22;29629;52.532;13.352;2022-08-21T05:28:23;18.80;99.90
41262;DHT22;29629;52.532;13.352;2022-08-21T05:30:51;18.70;99.90
41262;DHT22;29629;52.532;13.352;2022-08-21T05:33:17;18.70;99.90
41262;DHT22;29629;52.532;13.352;2022-08-21T05:35:44;18.70;99.90
41262;DHT22;29629;52.532;13.352;2022-08-21T05:38:12;18.70;99.90
41262;DHT22;29629;52.532;13.352;2022-08-21T05:40:39;18.70;99.90
41262;DHT22;29629;52.532;13.352;2022-08-21T05:43:06;18.80;99.90
41262;DHT22;29629;52.532;13.352;2022-08-21T05:45:33;18.80;99.90
41262;DHT22;29629;52.532;13.352;2022-08-21T05:48:05;18.80;99.90
41262;DHT22;29629;52.532;13.352;2022-08-21T05:50:32;18.90;99.90
41262;DHT22;29629;52.532;13.352;2022-08-21T05:52:59;18.90;99.90
41262;DHT22;29629;52.532;13.352;2022-08-21T05:55:28;19.10;99.90
41262;DHT22;29629;52.532;13.352;2022-08-21T05:57:54;19.00;99.90
41262;DHT22;29629;52.532;13.352;2022-08-21T06:00:21;19.00;99.90
41262;DHT22;29629;52.532;13.352;2022-08-21T06:02:48;19.00;99.90
41262;DHT22;29629;52.532;13.352;2022-08-21T06:05:16;19.10;99.90
41262;DHT22;29629;52.532;13.352;2022-08-21T06:07:44;19.20;99.90
41262;DHT22;29629;52.532;13.352;2022-08-21T06:10:10;19.10;99.90
41262;DHT22;29629;52.532;13.352;2022-08-21T06:12:39;19.20;99.90
41262;DHT22;29629;52.532;13.352;2022-08-21T06:15:07;19.20;99.90
41262;DHT22;29629;52.532;13.352;2022-08-21T06:17:34;19.20;99.90
41262;DHT22;29629;52.532;13.352;2022-08-21T06:20:01;19.30;99.90
41262;DHT22;29629;52.532;13.352;2022-08-21T06:22:28;19.30;99.90
41262;DHT22;29629;52.532;13.352;2022-08-21T06:24:55;19.30;99.90
41262;DHT22;29629;52.532;13.352;2022-08-21T06:27:22;19.30;99.90
41262;DHT22;29629;52.532;13.352;2022-08-21T06:29:50;19.40;99.90
41262;DHT22;29629;52.532;13.352;2022-08-21T06:32:16;19.50;99.90
41262;DHT22;29629;52.532;13.352;2022-08-21T06:34:43;19.50;99.90
41262;DHT22;29629;52.532;13.352;2022-08-21T06:37:10;19.50;99.90
41262;DHT22;29629;52.532;13.352;2022-08-21T06:39:37;19.50;99.90
41262;DHT22;29629;52.532;13.352;2022-08-21T06:42:04;19.60;99.90
41262;DHT22;29629;52.532;13.352;2022-08-21T06:44:30;19.60;99.90
41262;DHT22;29629;52.532;13.352;2022-08-21T06:46:58;19.70;99.90
41262;DHT22;29629;52.532;13.352;2022-08-21T06:49:25;19.70;99.90
41262;DHT22;29629;52.532;13.352;2022-08-21T06:51:52;19.80;99.90
41262;DHT22;29629;52.532;13.352;2022-08-21T06:54:19;19.80;99.90
41262;DHT22;29629;52.532;13.352;2022-08-21T06:56:46;19.90;99.90
41262;DHT22;29629;52.532;13.352;2022-08-21T06:59:12;20.00;99.90
41262;DHT22;29629;52.532;13.352;2022-08-21T07:01:39;20.00;99.90
41262;DHT22;29629;52.532;13.352;2022-08-21T07:04:08;20.10;99.90
41262;DHT22;29629;52.532;13.352;2022-08-21T07:06:35;20.10;99.90
41262;DHT22;29629;52.532;13.352;2022-08-21T07:09:02;20.30;99.90
41262;DHT22;29629;52.532;13.352;2022-08-21T07:11:29;20.30;99.90
41262;DHT22;29629;52.532;13.352;2022-08-21T07:13:56;20.40;99.90
41262;DHT22;29629;52.532;13.352;2022-08-21T07:16:23;20.50;99.90
41262;DHT22;29629;52.532;13.352;2022-08-21T07:18:50;20.70;99.90
41262;DHT22;29629;52.532;13.352;2022-08-21T07:21:19;20.80;99.90
41262;DHT22;29629;52.532;13.352;2022-08-21T07:23:47;20.80;99.90
41262;DHT22;29629;52.532;13.352;2022-08-21T07:26:16;21.00;99.90
41262;DHT22;29629;52.532;13.352;2022-08-21T07:28:44;21.20;99.90
41262;DHT22;29629;52.532;13.352;2022-08-21T07:31:13;21.20;99.90
41262;DHT22;29629;52.532;13.352;2022-08-21T07:33:41;21.30;99.90
41262;DHT22;29629;52.532;13.352;2022-08-21T07:36:08;21.30;99.90
41262;DHT22;29629;52.532;13.352;2022-08-21T07:38:37;21.30;99.90
41262;DHT22;29629;52.532;13.352;2022-08-21T07:41:10;21.40;99.90
41262;DHT22;29629;52.532;13.352;2022-08-21T07:43:39;21.50;99.90
41262;DHT22;29629;52.532;13.352;2022-08-21T07:46:06;21.50;99.90
41262;DHT22;29629;52.532;13.352;2022-08-21T07:48:33;21.70;99.90
41262;DHT22;29629;52.532;13.352;2022-08-21T07:51:02;21.80;99.90
41262;DHT22;29629;52.532;13.352;2022-08-21T07:53:31;21.80;99.90
41262;DHT22;29629;52.532;13.352;2022-08-21T07:56:00;21.90;99.90
41262;DHT22;29629;52.532;13.352;2022-08-21T07:58:27;21.90;99.90
41262;DHT22;29629;52.532;13.352;2022-08-21T08:00:53;22.00;99.90
41262;DHT22;29629;52.532;13.352;2022-08-21T08:03:20;22.00;99.90
41262;DHT22;29629;52.532;13.352;2022-08-21T08:05:47;22.10;99.90
41262;DHT22;29629;52.532;13.352;2022-08-21T08:08:14;22.20;99.90
41262;DHT22;29629;52.532;13.352;2022-08-21T08:10:41;22.30;99.90
41262;DHT22;29629;52.532;13.352;2022-08-21T08:13:09;22.40;99.90
41262;DHT22;29629;52.532;13.352;2022-08-21T08:15:36;22.50;99.90
41262;DHT22;29629;52.532;13.352;2022-08-21T08:18:03;22.60;99.90
41262;DHT22;29629;52.532;13.352;2022-08-21T08:20:30;22.70;99.90
41262;DHT22;29629;52.532;13.352;2022-08-21T08:22:57;22.70;99.90
41262;DHT22;29629;52.532;13.352;2022-08-21T08:25:25;22.80;99.90
41262;DHT22;29629;52.532;13.352;2022-08-21T08:27:52;23.00;99.90
41262;DHT22;29629;52.532;13.352;2022-08-21T08:30:21;23.30;99.90
41262;DHT22;29629;52.532;13.352;2022-08-21T08:32:49;23.50;99.90
41262;DHT22;29629;52.532;13.352;2022-08-21T08:35:16;23.70;99.90
41262;DHT22;29629;52.532;13.352;2022-08-21T08:37:43;23.90;99.90
41262;DHT22;29629;52.532;13.352;2022-08-21T08:40:13;23.90;99.90
41262;DHT22;29629;52.532;13.352;2022-08-21T08:42:40;23.80;99.90
41262;DHT22;29629;52.532;13.352;2022-08-21T08:45:11;23.80;99.90
41262;DHT22;29629;52.532;13.352;2022-08-21T08:47:43;23.90;99.90
41262;DHT22;29629;52.532;13.352;2022-08-21T08:50:15;23.80;99.90
41262;DHT22;29629;52.532;13.352;2022-08-21T08:52:47;23.70;99.90
41262;DHT22;29629;52.532;13.352;2022-08-21T08:55:17;23.70;99.90
41262;DHT22;29629;52.532;13.352;2022-08-21T08:57:47;23.70;99.90
41262;DHT22;29629;52.532;13.352;2022-08-21T09:00:18;23.90;99.90
41262;DHT22;29629;52.532;13.352;2022-08-21T09:02:47;23.90;99.90
41262;DHT22;29629;52.532;13.352;2022-08-21T09:05:21;23.80;99.90
41262;DHT22;29629;52.532;13.352;2022-08-21T09:07:59;24.00;99.90
41262;DHT22;29629;52.532;13.352;2022-08-21T09:10:44;24.10;99.90
41262;DHT22;29629;52.532;13.352;2022-08-21T09:13:17;24.20;99.90
41262;DHT22;29629;52.532;13.352;2022-08-21T09:15:51;24.20;99.90
41262;DHT22;29629;52.532;13.352;2022-08-21T09:18:31;24.10;99.90
41262;DHT22;29629;52.532;13.352;2022-08-21T09:21:08;24.10;99.90
41262;DHT22;29629;52.532;13.352;2022-08-21T09:23:45;24.10;99.90
41262;DHT22;29629;52.532;13.352;2022-08-21T09:26:15;24.00;99.90
41262;DHT22;29629;52.532;13.352;2022-08-21T09:28:43;24.00;99.90
41262;DHT22;29629;52.532;13.352;2022-08-21T09:31:18;24.10;99.90
41262;DHT22;29629;52.532;13.352;2022-08-21T09:33:49;24.00;99.90
41262;DHT22;29629;52.532;13.352;2022-08-21T09:36:25;23.90;99.90
41262;DHT22;29629;52.532;13.352;2022-08-21T09:38:57;23.90;99.90
41262;DHT22;29629;52.532;13.352;2022-08-21T09:41:27;23.80;99.90
41262;DHT22;29629;52.532;13.352;2022-08-21T09:43:54;23.90;99.90
41262;DHT22;29629;52.532;13.352;2022-08-21T09:46:24;24.00;99.90
41262;DHT22;29629;52.532;13.352;2022-08-21T09:48:54;24.10;99.90
41262;DHT22;29629;52.532;13.352;2022-08-21T09:51:24;24.20;99.90
41262;DHT22;29629;52.532;13.352;2022-08-21T09:53:54;24.40;99.90
41262;DHT22;29629;52.532;13.352;2022-08-21T09:56:27;24.50;99.90
41262;DHT22;29629;52.532;13.352;2022-08-21T09:59:19;24.80;99.90
41262;DHT22;29629;52.532;13.352;2022-08-21T10:01:49;24.90;99.90
41262;DHT22;29629;52.532;13.352;2022-08-21T10:04:22;25.10;99.90
41262;DHT22;29629;52.532;13.352;2022-08-21T10:06:50;25.40;99.90
41262;DHT22;29629;52.532;13.352;2022-08-21T10:09:19;25.50;99.90
41262;DHT22;29629;52.532;13.352;2022-08-21T10:11:54;25.50;99.90
41262;DHT22;29629;52.532;13.352;2022-08-21T10:14:44;25.70;99.90
41262;DHT22;29629;52.532;13.352;2022-08-21T10:17:17;25.90;99.90
41262;DHT22;29629;52.532;13.352;2022-08-21T10:19:55;26.30;99.90
41262;DHT22;29629;52.532;13.352;2022-08-21T10:22:32;26.60;99.90
41262;DHT22;29629;52.532;13.352;2022-08-21T10:25:09;26.90;99.90
41262;DHT22;29629;52.532;13.352;2022-08-21T10:27:47;27.40;99.90
41262;DHT22;29629;52.532;13.352;2022-08-21T10:30:20;27.60;99.90
41262;DHT22;29629;52.532;13.352;2022-08-21T10:33:02;27.70;99.90
41262;DHT22;29629;52.532;13.352;2022-08-21T10:35:40;28.00;99.90
41262;DHT22;29629;52.532;13.352;2022-08-21T10:38:34;28.50;99.90
41262;DHT22;29629;52.532;13.352;2022-08-21T10:41:09;29.30;99.90
41262;DHT22;29629;52.532;13.352;2022-08-21T10:43:56;29.50;99.90
41262;DHT22;29629;52.532;13.352;2022-08-21T10:46:37;29.40;99.90
41262;DHT22;29629;52.532;13.352;2022-08-21T10:49:13;29.70;99.90
41262;DHT22;29629;52.532;13.352;2022-08-21T10:51:48;29.40;99.90
41262;DHT22;29629;52.532;13.352;2022-08-21T10:54:23;29.30;99.90
41262;DHT22;29629;52.532;13.352;2022-08-21T10:56:58;28.90;99.90
41262;DHT22;29629;52.532;13.352;2022-08-21T10:59:29;28.90;99.90
41262;DHT22;29629;52.532;13.352;2022-08-21T11:02:01;29.10;99.90
41262;DHT22;29629;52.532;13.352;2022-08-21T11:04:31;29.90;99.90
41262;DHT22;29629;52.532;13.352;2022-08-21T11:07:05;29.80;99.90
41262;DHT22;29629;52.532;13.352;2022-08-21T11:09:33;30.40;99.90
41262;DHT22;29629;52.532;13.352;2022-08-21T11:12:05;31.10;99.90
41262;DHT22;29629;52.532;13.352;2022-08-21T11:14:39;32.30;99.90
41262;DHT22;29629;52.532;13.352;2022-08-21T11:17:10;33.30;99.90
41262;DHT22;29629;52.532;13.352;2022-08-21T11:19:45;33.80;99.90
41262;DHT22;29629;52.532;13.352;2022-08-21T11:22:21;34.40;99.20
41262;DHT22;29629;52.532;13.352;2022-08-21T11:24:54;34.80;97.50
41262;DHT22;29629;52.532;13.352;2022-08-21T11:27:28;35.10;96.70
41262;DHT22;29629;52.532;13.352;2022-08-21T11:29:58;35.10;95.00
41262;DHT22;29629;52.532;13.352;2022-08-21T11:35:27;34.70;93.50
41262;DHT22;29629;52.532;13.352;2022-08-21T11:38:16;34.70;93.30
41262;DHT22;29629;52.532;13.352;2022-08-21T11:40:56;34.90;93.30
41262;DHT22;29629;52.532;13.352;2022-08-21T11:43:35;34.80;93.90
41262;DHT22;29629;52.532;13.352;2022-08-21T11:46:20;33.90;94.70
41262;DHT22;29629;52.532;13.352;2022-08-21T11:49:02;33.80;92.60
41262;DHT22;29629;52.532;13.352;2022-08-21T11:51:35;34.10;92.60
41262;DHT22;29629;52.532;13.352;2022-08-21T11:54:17;34.00;93.40
41262;DHT22;29629;52.532;13.352;2022-08-21T11:56:51;34.50;92.10
41262;DHT22;29629;52.532;13.352;2022-08-21T11:59:23;34.60;92.20
41262;DHT22;29629;52.532;13.352;2022-08-21T12:01:53;34.50;91.60
41262;DHT22;29629;52.532;13.352;2022-08-21T12:04:27;34.60;92.20
41262;DHT22;29629;52.532;13.352;2022-08-21T12:06:54;34.40;90.50
41262;DHT22;29629;52.532;13.352;2022-08-21T12:09:34;34.40;92.20
41262;DHT22;29629;52.532;13.352;2022-08-21T12:12:05;34.40;92.20
41262;DHT22;29629;52.532;13.352;2022-08-21T12:14:41;34.30;91.60
41262;DHT22;29629;52.532;13.352;2022-08-21T12:17:18;34.00;92.00
41262;DHT22;29629;52.532;13.352;2022-08-21T12:19:57;34.40;91.80
41262;DHT22;29629;52.532;13.352;2022-08-21T12:22:36;34.30;91.70
41262;DHT22;29629;52.532;13.352;2022-08-21T12:25:08;34.20;91.30
41262;DHT22;29629;52.532;13.352;2022-08-21T12:27:45;34.40;91.80
41262;DHT22;29629;52.532;13.352;2022-08-21T12:30:22;34.80;90.60
41262;DHT22;29629;52.532;13.352;2022-08-21T12:32:56;35.10;91.50
41262;DHT22;29629;52.532;13.352;2022-08-21T12:35:27;35.20;91.40
41262;DHT22;29629;52.532;13.352;2022-08-21T12:38:04;35.20;91.20
41262;DHT22;29629;52.532;13.352;2022-08-21T12:40:41;35.10;90.50
41262;DHT22;29629;52.532;13.352;2022-08-21T12:43:14;35.50;90.90
41262;DHT22;29629;52.532;13.352;2022-08-21T12:45:43;35.70;90.50
41262;DHT22;29629;52.532;13.352;2022-08-21T12:48:16;35.80;90.60
41262;DHT22;29629;52.532;13.352;2022-08-21T12:50:49;36.00;90.40
41262;DHT22;29629;52.532;13.352;2022-08-21T12:53:27;36.30;89.20
41262;DHT22;29629;52.532;13.352;2022-08-21T12:55:57;36.10;89.00
41262;DHT22;29629;52.532;13.352;2022-08-21T12:58:27;36.20;87.30
41262;DHT22;29629;52.532;13.352;2022-08-21T13:00:59;36.30;86.50
41262;DHT22;29629;52.532;13.352;2022-08-21T13:03:27;36.30;86.30
41262;DHT22;29629;52.532;13.352;2022-08-21T13:05:54;36.30;86.90
41262;DHT22;29629;52.532;13.352;2022-08-21T13:08:24;36.30;86.80
41262;DHT22;29629;52.532;13.352;2022-08-21T13:11:00;36.30;86.80
41262;DHT22;29629;52.532;13.352;2022-08-21T13:13:29;36.10;86.50
41262;DHT22;29629;52.532;13.352;2022-08-21T13:15:58;36.30;85.40
41262;DHT22;29629;52.532;13.352;2022-08-21T13:18:27;36.20;86.30
41262;DHT22;29629;52.532;13.352;2022-08-21T13:21:04;36.40;85.70
41262;DHT22;29629;52.532;13.352;2022-08-21T13:23:31;36.40;84.50
41262;DHT22;29629;52.532;13.352;2022-08-21T13:25:59;36.50;83.80
41262;DHT22;29629;52.532;13.352;2022-08-21T13:28:32;36.20;84.40
41262;DHT22;29629;52.532;13.352;2022-08-21T13:31:00;36.00;84.00
41262;DHT22;29629;52.532;13.352;2022-08-21T13:33:30;35.60;85.50
41262;DHT22;29629;52.532;13.352;2022-08-21T13:36:02;35.40;87.10
41262;DHT22;29629;52.532;13.352;2022-08-21T13:38:33;35.00;86.10
41262;DHT22;29629;52.532;13.352;2022-08-21T13:41:08;34.30;86.90
41262;DHT22;29629;52.532;13.352;2022-08-21T13:43:36;33.40;88.50
41262;DHT22;29629;52.532;13.352;2022-08-21T13:46:09;32.80;89.70
41262;DHT22;29629;52.532;13.352;2022-08-21T13:48:37;32.00;90.80
41262;DHT22;29629;52.532;13.352;2022-08-21T13:51:04;31.80;90.40
41262;DHT22;29629;52.532;13.352;2022-08-21T13:53:34;31.80;92.10
41262;DHT22;29629;52.532;13.352;2022-08-21T13:56:04;31.50;90.50
41262;DHT22;29629;52.532;13.352;2022-08-21T13:58:34;31.50;91.50
41262;DHT22;29629;52.532;13.352;2022-08-21T14:01:18;31.50;91.40
41262;DHT22;29629;52.532;13.352;2022-08-21T14:03:47;30.80;92.00
41262;DHT22;29629;52.532;13.352;2022-08-21T14:06:21;30.90;92.90
41262;DHT22;29629;52.532;13.352;2022-08-21T14:08:51;30.50;92.50
41262;DHT22;29629;52.532;13.352;2022-08-21T14:11:19;30.30;93.00
41262;DHT22;29629;52.532;13.352;2022-08-21T14:13:49;30.20;93.40
41262;DHT22;29629;52.532;13.352;2022-08-21T14:16:19;30.10;92.70
41262;DHT22;29629;52.532;13.352;2022-08-21T14:18:50;29.70;93.00
41262;DHT22;29629;52.532;13.352;2022-08-21T14:21:32;29.20;93.50
41262;DHT22;29629;52.532;13.352;2022-08-21T14:24:06;28.70;94.10
41262;DHT22;29629;52.532;13.352;2022-08-21T14:26:43;28.30;94.10
41262;DHT22;29629;52.532;13.352;2022-08-21T14:29:14;28.00;95.10
41262;DHT22;29629;52.532;13.352;2022-08-21T14:31:42;27.90;96.30
41262;DHT22;29629;52.532;13.352;2022-08-21T14:34:11;27.80;95.60
41262;DHT22;29629;52.532;13.352;2022-08-21T14:36:39;27.70;96.90
41262;DHT22;29629;52.532;13.352;2022-08-21T14:39:06;27.60;97.30
41262;DHT22;29629;52.532;13.352;2022-08-21T14:41:34;27.60;97.80
41262;DHT22;29629;52.532;13.352;2022-08-21T14:44:03;27.50;97.90
41262;DHT22;29629;52.532;13.352;2022-08-21T14:46:31;27.30;98.70
41262;DHT22;29629;52.532;13.352;2022-08-21T14:48:59;27.20;99.00
41262;DHT22;29629;52.532;13.352;2022-08-21T14:51:26;27.10;99.70
41262;DHT22;29629;52.532;13.352;2022-08-21T14:53:53;27.00;99.40
41262;DHT22;29629;52.532;13.352;2022-08-21T14:56:20;26.80;99.90
41262;DHT22;29629;52.532;13.352;2022-08-21T14:58:50;26.90;99.90
41262;DHT22;29629;52.532;13.352;2022-08-21T15:01:20;26.80;99.90
41262;DHT22;29629;52.532;13.352;2022-08-21T15:03:48;26.70;99.90
41262;DHT22;29629;52.532;13.352;2022-08-21T15:06:16;26.60;99.90
41262;DHT22;29629;52.532;13.352;2022-08-21T15:08:43;26.50;99.90
41262;DHT22;29629;52.532;13.352;2022-08-21T15:11:14;26.40;99.90
41262;DHT22;29629;52.532;13.352;2022-08-21T15:13:42;26.30;99.90
41262;DHT22;29629;52.532;13.352;2022-08-21T15:16:11;26.20;99.90
41262;DHT22;29629;52.532;13.352;2022-08-21T15:18:38;26.20;99.90
41262;DHT22;29629;52.532;13.352;2022-08-21T15:21:05;26.10;99.90
41262;DHT22;29629;52.532;13.352;2022-08-21T15:23:32;25.90;99.90
41262;DHT22;29629;52.532;13.352;2022-08-21T15:25:59;25.90;99.90
41262;DHT22;29629;52.532;13.352;2022-08-21T15:28:26;25.80;99.90
41262;DHT22;29629;52.532;13.352;2022-08-21T15:30:53;25.80;99.90
41262;DHT22;29629;52.532;13.352;2022-08-21T15:33:21;25.80;99.90